Time;durP1;ratioP1;P1;durP2;ratioP2;P2;SDS_P1;SDS_P2;PMS_P1;PMS_P2;Temp;Humidity;BMP_temperature;BMP_pressure;BME280_temperature;BME280_humidity;BME280_pressure;Samples;Min_cycle;Max_cycle;Signal;HPM_P1;HPM_P2
2023/04/20 00:00:10;;;;;;;3.97;3.40;;;7.70;1.00;;;;;;5030989;28;20229;-80
2023/04/20 00:02:38;;;;;;;5.63;2.80;;;7.70;1.00;;;;;;5012766;28;20826;-80
2023/04/20 00:05:06;;;;;;;4.43;3.90;;;7.70;1.00;;;;;;5012740;28;20199;-82
2023/04/20 00:07:34;;;;;;;6.70;3.47;;;7.70;1.00;;;;;;5027342;28;20285;-81
2023/04/20 00:10:01;;;;;;;5.93;3.43;;;7.70;1.00;;;;;;5032036;28;20196;-82
2023/04/20 00:12:28;;;;;;;3.73;3.10;;;7.70;1.00;;;;;;5033155;28;20218;-83
2023/04/20 00:14:55;;;;;;;6.00;3.77;;;7.60;1.00;;;;;;5029123;28;20271;-82
2023/04/20 00:17:22;;;;;;;7.93;3.80;;;7.60;1.00;;;;;;5016815;28;20191;-83
2023/04/20 00:19:51;;;;;;;5.97;3.67;;;7.60;1.00;;;;;;5015421;28;20314;-83
2023/04/20 00:22:18;;;;;;;6.07;4.00;;;7.60;1.00;;;;;;5016512;28;20278;-82
2023/04/20 00:24:44;;;;;;;7.13;3.20;;;7.60;1.00;;;;;;5016576;28;20199;-82
2023/04/20 00:27:11;;;;;;;5.67;3.53;;;7.60;1.00;;;;;;5015755;28;20572;-82
2023/04/20 00:29:39;;;;;;;4.73;3.60;;;7.60;1.00;;;;;;5026782;28;20288;-83
2023/04/20 00:32:06;;;;;;;5.83;3.60;;;7.50;1.00;;;;;;5036447;28;20881;-83
2023/04/20 00:34:33;;;;;;;6.07;3.77;;;7.50;1.00;;;;;;5035761;28;20284;-82
2023/04/20 00:39:27;;;;;;;3.77;3.40;;;7.40;1.00;;;;;;5040751;23;20308;-83
2023/04/20 00:41:53;;;;;;;6.67;4.00;;;7.50;1.00;;;;;;5035822;28;20285;-83
2023/04/20 00:44:20;;;;;;;7.83;3.93;;;7.40;1.00;;;;;;5036132;28;20226;-84
2023/04/20 00:46:47;;;;;;;4.97;3.77;;;7.50;1.00;;;;;;5018065;28;20254;-83
2023/04/20 00:49:14;;;;;;;4.67;3.90;;;7.40;7.20;;;;;;5016664;28;20666;-82
2023/04/20 00:51:41;;;;;;;4.90;3.30;;;7.40;41.10;;;;;;5016025;28;20246;-82
2023/04/20 00:54:08;;;;;;;5.77;3.13;;;7.40;47.00;;;;;;5015849;28;20230;-82
2023/04/20 00:56:38;;;;;;;5.37;3.67;;;7.40;28.50;;;;;;5015903;28;20249;-82
2023/04/20 00:59:06;;;;;;;7.57;3.50;;;7.40;18.60;;;;;;5031064;28;20202;-81
2023/04/20 01:01:33;;;;;;;6.40;3.80;;;7.40;23.10;;;;;;5035537;28;20206;-82
2023/04/20 01:04:00;;;;;;;6.33;3.53;;;7.40;1.00;;;;;;5035575;28;20215;-81
2023/04/20 01:06:27;;;;;;;5.57;3.50;;;7.40;1.00;;;;;;5035057;28;20230;-81
2023/04/20 01:08:54;;;;;;;6.70;3.70;;;7.40;1.00;;;;;;5028467;28;20207;-83
2023/04/20 01:11:21;;;;;;;5.90;3.40;;;7.40;1.00;;;;;;5015731;28;20270;-82
2023/04/20 01:13:50;;;;;;;7.87;3.80;;;7.40;1.00;;;;;;5016132;28;20275;-83
2023/04/20 01:16:17;;;;;;;6.47;4.03;;;7.40;1.00;;;;;;5023062;28;20203;-83
2023/04/20 01:18:45;;;;;;;6.93;3.70;;;7.30;1.00;;;;;;5035741;28;20613;-83
2023/04/20 01:21:12;;;;;;;7.67;3.33;;;7.30;1.00;;;;;;5021172;28;20227;-83
2023/04/20 01:23:41;;;;;;;3.67;3.30;;;7.30;1.00;;;;;;5014546;28;20532;-84
2023/04/20 01:26:09;;;;;;;6.60;3.77;;;7.20;1.00;;;;;;5015461;28;20211;-81
2023/04/20 01:28:36;;;;;;;6.67;4.20;;;7.10;21.20;;;;;;5016062;28;20599;-83
2023/04/20 01:31:04;;;;;;;8.03;3.70;;;7.10;83.90;;;;;;5027706;28;20246;-82
2023/04/20 01:33:31;;;;;;;8.77;3.50;;;7.10;99.30;;;;;;5035451;28;20430;-83
2023/04/20 01:35:58;;;;;;;5.57;3.40;;;7.10;99.90;;;;;;5035340;28;20201;-83
2023/04/20 01:38:26;;;;;;;13.23;4.30;;;7.10;99.90;;;;;;5033625;28;20241;-83
2023/04/20 01:40:55;;;;;;;6.23;4.03;;;7.10;99.90;;;;;;5035113;28;20226;-82
2023/04/20 01:43:22;;;;;;;4.97;3.83;;;7.00;99.90;;;;;;5030105;28;20572;-83
2023/04/20 01:45:49;;;;;;;4.83;3.83;;;7.00;99.90;;;;;;5014951;28;20631;-82
2023/04/20 01:48:16;;;;;;;6.23;3.77;;;6.90;99.90;;;;;;5015254;28;20203;-81
2023/04/20 01:50:43;;;;;;;6.17;3.53;;;6.90;99.90;;;;;;5018538;28;20195;-81
2023/04/20 01:53:12;;;;;;;9.13;4.20;;;6.80;99.90;;;;;;5034951;28;20209;-83
2023/04/20 01:55:39;;;;;;;3.80;3.40;;;6.80;99.90;;;;;;5034754;28;20203;-81
2023/04/20 01:58:08;;;;;;;6.53;3.67;;;6.80;99.90;;;;;;5034637;28;20214;-81
2023/04/20 02:00:35;;;;;;;5.13;3.70;;;6.80;99.90;;;;;;5034180;28;20670;-84
2023/04/20 02:03:02;;;;;;;5.23;3.30;;;6.80;99.90;;;;;;5034911;28;20211;-82
2023/04/20 02:05:29;;;;;;;6.83;3.93;;;6.80;99.90;;;;;;5034510;28;20213;-82
2023/04/20 02:07:55;;;;;;;6.73;3.90;;;6.70;99.90;;;;;;5034629;28;20230;-81
2023/04/20 02:10:22;;;;;;;6.67;3.87;;;6.70;99.90;;;;;;5033665;28;20202;-81
2023/04/20 02:12:50;;;;;;;6.17;4.00;;;6.70;99.90;;;;;;5034696;28;20202;-81
2023/04/20 02:15:18;;;;;;;6.03;3.50;;;6.70;99.90;;;;;;5034599;28;20203;-82
2023/04/20 02:17:46;;;;;;;6.23;3.80;;;6.60;99.90;;;;;;5034613;28;20195;-83
2023/04/20 02:20:13;;;;;;;6.07;3.70;;;6.60;99.90;;;;;;5016610;28;20235;-82
2023/04/20 02:22:40;;;;;;;7.03;3.50;;;6.60;99.90;;;;;;5015392;28;20199;-81
2023/04/20 02:25:09;;;;;;;5.90;3.70;;;6.50;99.90;;;;;;5015233;28;20226;-82
2023/04/20 02:27:36;;;;;;;7.43;3.20;;;6.60;99.90;;;;;;5015537;28;20214;-83
2023/04/20 02:30:04;;;;;;;5.37;3.80;;;6.60;99.90;;;;;;5015734;28;20298;-83
2023/04/20 02:32:33;;;;;;;4.70;3.40;;;6.60;99.90;;;;;;5016234;28;20670;-83
2023/04/20 02:35:00;;;;;;;4.07;3.30;;;6.60;99.90;;;;;;5015327;28;20588;-82
2023/04/20 02:37:27;;;;;;;5.60;4.00;;;6.60;99.90;;;;;;5014693;28;20239;-82
2023/04/20 02:39:54;;;;;;;3.67;3.00;;;6.60;99.90;;;;;;5026325;28;22201;-81
2023/04/20 02:42:21;;;;;;;7.67;3.43;;;6.60;99.90;;;;;;5034032;28;20285;-82
2023/04/20 02:44:48;;;;;;;7.60;3.33;;;6.70;99.90;;;;;;5033195;28;20285;-82
2023/04/20 02:47:15;;;;;;;4.50;3.17;;;6.70;99.90;;;;;;5033684;28;20700;-82
2023/04/20 02:49:44;;;;;;;7.33;3.63;;;6.70;99.90;;;;;;5032413;28;20782;-82
2023/04/20 02:52:11;;;;;;;8.37;3.60;;;6.70;99.90;;;;;;5013801;28;20288;-82
2023/04/20 02:54:38;;;;;;;5.03;3.70;;;6.70;99.90;;;;;;5015948;28;20202;-82
2023/04/20 02:57:04;;;;;;;4.80;3.67;;;6.70;99.90;;;;;;5033738;28;20195;-82
2023/04/20 02:59:31;;;;;;;5.27;3.23;;;6.80;99.90;;;;;;5033576;28;20216;-83
2023/04/20 03:01:58;;;;;;;5.03;3.33;;;6.80;99.90;;;;;;5018969;28;20223;-83
2023/04/20 03:04:26;;;;;;;3.60;2.70;;;6.80;99.90;;;;;;5029954;28;20286;-83
2023/04/20 03:06:54;;;;;;;6.23;3.47;;;6.80;99.90;;;;;;5033130;28;20233;-83
2023/04/20 03:09:21;;;;;;;6.10;3.17;;;6.80;99.90;;;;;;5032807;28;20229;-82
2023/04/20 03:11:48;;;;;;;6.57;3.20;;;6.80;99.90;;;;;;5031705;28;20252;-81
2023/04/20 03:14:15;;;;;;;4.00;3.10;;;6.90;99.90;;;;;;5033377;28;20290;-84
2023/04/20 03:16:42;;;;;;;5.10;3.00;;;6.90;99.90;;;;;;5032855;28;20198;-84
2023/04/20 03:19:09;;;;;;;4.97;2.80;;;7.00;99.90;;;;;;5033310;28;20585;-83
2023/04/20 03:21:36;;;;;;;5.47;3.30;;;7.10;99.90;;;;;;5023100;28;20306;-83
2023/04/20 03:24:06;;;;;;;3.17;2.83;;;7.10;99.90;;;;;;5013630;28;20245;-82
2023/04/20 03:26:33;;;;;;;4.83;3.33;;;7.20;99.90;;;;;;5013850;28;20208;-84
2023/04/20 03:29:00;;;;;;;4.57;3.43;;;7.20;99.90;;;;;;5013457;28;20282;-82
2023/04/20 03:31:27;;;;;;;4.53;2.97;;;7.20;99.90;;;;;;5012994;28;20231;-84
2023/04/20 03:33:54;;;;;;;4.97;3.20;;;7.30;99.90;;;;;;5013366;28;20216;-83
2023/04/20 03:36:21;;;;;;;5.27;3.63;;;7.30;99.90;;;;;;5013304;28;20196;-84
2023/04/20 03:38:48;;;;;;;7.97;2.70;;;7.30;99.90;;;;;;5028057;28;20638;-84
2023/04/20 03:41:16;;;;;;;5.97;3.10;;;7.40;99.90;;;;;;5034226;28;20230;-84
2023/04/20 03:43:43;;;;;;;6.37;2.93;;;7.50;99.90;;;;;;5020306;28;20289;-84
2023/04/20 03:46:10;;;;;;;3.30;2.60;;;7.50;99.90;;;;;;5014934;28;20223;-84
2023/04/20 03:48:37;;;;;;;5.73;2.90;;;7.50;99.90;;;;;;5014301;28;20199;-85
2023/04/20 03:51:04;;;;;;;4.17;2.63;;;7.60;99.90;;;;;;5027536;28;20213;-85
2023/04/20 03:53:31;;;;;;;4.83;3.00;;;7.60;99.90;;;;;;5034427;28;20209;-84
2023/04/20 03:55:57;;;;;;;4.70;2.63;;;7.60;99.90;;;;;;5034173;28;20281;-85
2023/04/20 03:58:26;;;;;;;7.27;2.97;;;7.60;99.90;;;;;;5034307;28;20207;-83
2023/04/20 04:00:53;;;;;;;5.70;2.90;;;7.70;99.90;;;;;;5034371;28;20230;-85
2023/04/20 04:03:20;;;;;;;5.20;2.73;;;7.60;99.90;;;;;;5034104;28;20606;-85
2023/04/20 04:05:47;;;;;;;7.33;3.10;;;7.60;99.90;;;;;;5034127;28;20195;-85
2023/04/20 04:08:14;;;;;;;8.17;3.30;;;7.60;99.90;;;;;;5033204;28;20294;-85
2023/04/20 04:10:40;;;;;;;5.90;2.57;;;7.60;99.90;;;;;;5027687;28;20222;-84
2023/04/20 04:13:07;;;;;;;4.20;2.30;;;7.70;99.90;;;;;;5014706;28;20203;-85
2023/04/20 04:15:36;;;;;;;9.07;2.50;;;7.70;99.90;;;;;;5024279;28;20248;-85
2023/04/20 04:18:03;;;;;;;3.70;2.33;;;7.70;99.90;;;;;;5034083;28;20203;-85
2023/04/20 04:20:29;;;;;;;7.27;2.83;;;7.60;99.90;;;;;;5022627;28;20234;-84
2023/04/20 04:22:57;;;;;;;6.60;3.23;;;7.60;99.90;;;;;;5014309;28;20242;-84
2023/04/20 04:25:24;;;;;;;4.63;2.67;;;7.60;99.90;;;;;;5014287;28;20864;-84
2023/04/20 04:27:52;;;;;;;7.10;2.63;;;7.60;99.90;;;;;;5014206;28;20206;-84
2023/04/20 04:30:19;;;;;;;8.10;3.37;;;7.60;99.90;;;;;;5033936;28;20234;-83
2023/04/20 04:32:49;;;;;;;7.10;2.70;;;7.60;99.90;;;;;;5033614;28;20308;-84
2023/04/20 04:35:15;;;;;;;3.90;2.17;;;7.60;99.90;;;;;;5033327;28;20330;-85
2023/04/20 04:37:42;;;;;;;8.10;3.47;;;7.70;99.90;;;;;;5033555;28;20250;-84
2023/04/20 04:40:11;;;;;;;3.80;2.43;;;7.70;99.90;;;;;;5024535;28;20207;-84
2023/04/20 04:42:38;;;;;;;7.33;2.93;;;7.70;99.90;;;;;;5013975;28;20224;-83
2023/04/20 04:45:06;;;;;;;4.53;2.20;;;7.80;99.90;;;;;;5013775;28;20246;-83
2023/04/20 04:47:36;;;;;;;6.93;2.40;;;7.90;99.90;;;;;;5012815;28;20227;-84
2023/04/20 04:50:06;;;;;;;3.80;2.33;;;8.00;99.90;;;;;;5013682;28;20565;-82
2023/04/20 04:52:33;;;;;;;8.37;2.20;;;8.00;99.90;;;;;;5013580;28;20203;-86
2023/04/20 04:55:00;;;;;;;6.47;2.43;;;8.10;99.90;;;;;;5013126;28;20235;-84
2023/04/20 04:57:27;;;;;;;6.40;2.70;;;8.20;99.90;;;;;;5013276;28;20246;-82
2023/04/20 04:59:54;;;;;;;6.77;2.30;;;8.20;99.90;;;;;;5015535;28;20289;-84
2023/04/20 05:02:21;;;;;;;9.07;2.60;;;8.20;99.90;;;;;;5015603;28;20261;-81
2023/04/20 05:04:48;;;;;;;7.63;2.43;;;8.30;99.90;;;;;;5036255;28;20286;-85
2023/04/20 05:07:17;;;;;;;11.60;3.63;;;8.30;99.90;;;;;;5036723;28;20191;-85
2023/04/20 05:09:44;;;;;;;4.40;2.47;;;8.30;99.90;;;;;;5035542;28;20281;-83
2023/04/20 05:12:11;;;;;;;6.07;2.80;;;8.30;99.90;;;;;;5022622;28;20301;-84
2023/04/20 05:14:37;;;;;;;5.30;2.50;;;8.30;99.90;;;;;;5016682;28;20207;-85
2023/04/20 05:17:04;;;;;;;6.97;3.00;;;8.30;99.90;;;;;;5016741;28;20657;-84
2023/04/20 05:19:31;;;;;;;6.40;3.13;;;8.40;99.90;;;;;;5016463;28;20234;-83
2023/04/20 05:21:58;;;;;;;6.23;2.40;;;8.40;99.90;;;;;;5016477;28;20233;-84
2023/04/20 05:24:26;;;;;;;4.57;2.67;;;8.40;99.90;;;;;;5016817;28;20229;-83
2023/04/20 05:26:53;;;;;;;9.20;3.43;;;8.40;99.90;;;;;;5017482;28;20297;-85
2023/04/20 05:29:20;;;;;;;5.57;2.80;;;8.40;99.90;;;;;;5016620;28;20226;-85
2023/04/20 05:31:47;;;;;;;6.13;2.20;;;8.50;99.90;;;;;;5018621;28;20290;-83
2023/04/20 05:34:14;;;;;;;3.80;2.40;;;8.60;99.90;;;;;;5035106;28;20202;-81
2023/04/20 05:36:41;;;;;;;6.37;2.67;;;8.60;99.90;;;;;;5035481;28;20202;-84
2023/04/20 05:39:09;;;;;;;5.00;2.47;;;8.70;99.90;;;;;;5021422;28;20235;-85
2023/04/20 05:41:37;;;;;;;5.07;2.30;;;8.70;99.90;;;;;;5016202;28;20231;-85
2023/04/20 05:44:04;;;;;;;4.57;2.67;;;8.80;99.90;;;;;;5016569;28;20217;-83
2023/04/20 05:46:31;;;;;;;8.30;2.63;;;8.80;99.90;;;;;;5016527;28;20196;-84
2023/04/20 05:48:58;;;;;;;7.60;2.23;;;8.90;99.90;;;;;;5015328;28;20235;-85
2023/04/20 05:51:27;;;;;;;5.73;2.40;;;9.00;99.90;;;;;;5015803;28;20591;-82
2023/04/20 05:53:55;;;;;;;5.93;2.00;;;9.10;99.90;;;;;;5015433;28;20302;-87
2023/04/20 05:56:22;;;;;;;4.10;2.10;;;9.20;99.90;;;;;;5014560;28;20286;-84
2023/04/20 05:58:51;;;;;;;7.40;2.30;;;9.20;99.90;;;;;;5018454;28;20202;-83
2023/04/20 06:01:18;;;;;;;4.40;2.03;;;9.30;99.90;;;;;;5034942;28;20226;-81
2023/04/20 06:03:46;;;;;;;7.77;2.33;;;9.30;99.90;;;;;;5034726;28;20208;-81
2023/04/20 06:06:12;;;;;;;6.10;2.50;;;9.30;99.90;;;;;;5034215;28;20272;-82
2023/04/20 06:08:39;;;;;;;7.23;2.27;;;9.40;99.90;;;;;;5019813;28;20257;-86
2023/04/20 06:11:06;;;;;;;6.97;2.13;;;9.40;94.10;;;;;;5014115;28;20204;-84
2023/04/20 06:13:33;;;;;;;15.77;2.80;;;9.50;53.80;;;;;;5014743;28;20619;-83
2023/04/20 06:16:02;;;;;;;5.13;2.20;;;9.50;1.00;;;;;;5014781;28;20207;-86
2023/04/20 06:18:29;;;;;;;6.30;2.63;;;9.50;1.00;;;;;;5013608;28;20278;-83
2023/04/20 06:20:55;;;;;;;8.73;2.93;;;9.50;1.00;;;;;;5014107;28;20239;-84
2023/04/20 06:23:23;;;;;;;3.13;1.93;;;9.50;99.90;;;;;;5033028;28;20599;-85
2023/04/20 06:25:50;;;;;;;8.07;2.80;;;9.50;99.90;;;;;;5033653;28;20195;-82
2023/04/20 06:28:17;;;;;;;4.93;2.37;;;9.50;1.00;;;;;;5034224;28;20587;-81
2023/04/20 06:30:44;;;;;;;5.53;2.40;;;9.50;1.00;;;;;;5025258;28;20227;-81
2023/04/20 06:33:15;;;;;;;6.10;2.37;;;9.50;1.00;;;;;;5013981;28;20518;-83
2023/04/20 06:35:42;;;;;;;4.90;2.03;;;9.50;1.00;;;;;;5014416;28;20217;-81
2023/04/20 06:38:09;;;;;;;5.43;2.17;;;9.50;1.00;;;;;;5014241;28;20259;-80
2023/04/20 06:40:36;;;;;;;6.40;2.50;;;9.50;1.00;;;;;;5013217;28;20206;-81
2023/04/20 06:43:03;;;;;;;7.87;2.13;;;9.50;1.00;;;;;;5013732;28;20231;-82
2023/04/20 06:45:30;;;;;;;7.40;2.47;;;9.50;1.00;;;;;;5014270;28;20199;-83
2023/04/20 06:47:57;;;;;;;3.93;2.00;;;9.50;1.00;;;;;;5012918;28;20229;-81
2023/04/20 06:50:25;;;;;;;6.93;2.10;;;9.40;1.00;;;;;;5013852;28;20294;-81
2023/04/20 06:52:52;;;;;;;5.23;2.60;;;9.50;1.00;;;;;;5013824;28;20273;-83
2023/04/20 06:55:19;;;;;;;3.40;2.30;;;9.40;1.00;;;;;;5013966;28;20298;-82
2023/04/20 06:57:46;;;;;;;6.53;2.00;;;9.40;1.00;;;;;;5013735;28;20238;-83
2023/04/20 07:00:14;;;;;;;4.03;2.13;;;9.40;1.00;;;;;;5013760;28;20286;-80
2023/04/20 07:02:47;;;;;;;4.73;2.47;;;9.30;1.00;;;;;;5014919;28;20225;-82
2023/04/20 07:05:14;;;;;;;5.50;2.23;;;9.30;1.00;;;;;;5033821;28;20256;-83
2023/04/20 07:07:42;;;;;;;8.13;2.60;;;9.40;1.00;;;;;;5023212;28;20314;-85
2023/04/20 07:10:11;;;;;;;7.33;2.60;;;9.30;1.00;;;;;;5027434;28;20202;-83
2023/04/20 07:12:39;;;;;;;4.37;2.30;;;9.30;1.00;;;;;;5014931;28;20210;-83
2023/04/20 07:15:07;;;;;;;4.77;2.13;;;9.20;1.00;;;;;;5026975;28;20208;-83
2023/04/20 07:17:35;;;;;;;4.53;2.10;;;9.20;1.00;;;;;;5017176;28;20596;-84
2023/04/20 07:20:06;;;;;;;5.20;2.10;;;9.30;35.50;;;;;;5022342;28;20274;-82
2023/04/20 07:22:33;;;;;;;5.10;2.13;;;9.30;27.30;;;;;;5022882;28;20323;-82
2023/04/20 07:25:02;;;;;;;5.67;2.90;;;9.30;56.30;;;;;;5016271;28;20191;-85
2023/04/20 07:27:29;;;;;;;7.53;2.40;;;9.40;45.90;;;;;;5014256;28;20199;-84
2023/04/20 07:29:56;;;;;;;5.23;2.10;;;9.50;89.60;;;;;;5018816;28;20226;-84
2023/04/20 07:32:23;;;;;;;6.10;2.60;;;9.50;12.00;;;;;;5020120;28;20205;-85
2023/04/20 07:34:50;;;;;;;4.47;2.27;;;9.60;1.00;;;;;;5023040;28;20283;-85
2023/04/20 07:37:17;;;;;;;4.17;2.40;;;9.60;1.00;;;;;;5013749;28;20235;-80
2023/04/20 07:39:44;;;;;;;4.97;2.23;;;9.60;1.00;;;;;;5022297;28;20195;-85
2023/04/20 07:42:13;;;;;;;8.00;2.40;;;9.60;99.90;;;;;;5024503;28;20251;-85
2023/04/20 07:44:40;;;;;;;5.40;2.23;;;9.50;99.90;;;;;;5015464;28;20346;-84
2023/04/20 07:47:06;;;;;;;4.17;2.67;;;9.50;99.90;;;;;;5015490;28;20200;-86
2023/04/20 07:49:39;;;;;;;5.23;2.30;;;9.40;1.00;;;;;;5022102;28;20281;-86
2023/04/20 07:52:06;;;;;;;4.43;2.23;;;9.50;1.00;;;;;;5032733;28;20814;-85
2023/04/20 07:54:33;;;;;;;7.00;2.47;;;9.50;1.00;;;;;;5033391;28;20839;-83
2023/04/20 07:57:00;;;;;;;2.80;2.00;;;9.50;1.00;;;;;;5022317;28;20221;-85
2023/04/20 07:59:29;;;;;;;3.80;2.67;;;9.50;1.00;;;;;;5013836;28;20229;-86
2023/04/20 08:02:00;;;;;;;3.77;2.37;;;9.40;1.00;;;;;;5013649;28;20223;-87
2023/04/20 08:04:27;;;;;;;7.97;3.73;;;9.40;1.00;;;;;;5014112;28;20271;-85
2023/04/20 08:06:54;;;;;;;4.80;2.40;;;9.40;1.00;;;;;;5017807;28;20226;-82
2023/04/20 08:09:24;;;;;;;5.20;2.37;;;9.40;1.00;;;;;;5015870;28;20703;-84
2023/04/20 08:11:51;;;;;;;7.60;3.07;;;9.40;1.00;;;;;;5016606;28;20569;-84
2023/04/20 08:14:18;;;;;;;5.80;2.50;;;9.30;64.50;;;;;;5023266;28;20756;-84
2023/04/20 08:16:46;;;;;;;6.60;2.70;;;9.30;76.20;;;;;;5017382;28;20202;-83
2023/04/20 08:19:13;;;;;;;3.97;2.43;;;9.20;99.90;;;;;;5013815;28;20233;-84
2023/04/20 08:21:40;;;;;;;5.90;3.67;;;9.20;99.90;;;;;;5016991;28;20767;-81
2023/04/20 08:24:08;;;;;;;6.07;2.40;;;9.10;99.90;;;;;;5018455;28;20206;-80
2023/04/20 08:26:36;;;;;;;5.30;3.00;;;9.10;99.90;;;;;;5015102;28;20220;-81
2023/04/20 08:29:04;;;;;;;4.53;2.90;;;9.10;99.90;;;;;;5020526;28;20235;-79
2023/04/20 08:31:32;;;;;;;4.30;2.87;;;9.00;99.90;;;;;;5014642;28;20203;-82
2023/04/20 08:34:00;;;;;;;6.13;2.90;;;8.90;99.90;;;;;;5022665;28;20665;-83
2023/04/20 08:36:27;;;;;;;7.20;2.93;;;8.90;99.90;;;;;;5022230;28;20230;-83
2023/04/20 08:38:57;;;;;;;7.37;2.83;;;8.80;99.90;;;;;;5032377;28;20241;-86
2023/04/20 08:41:25;;;;;;;5.00;3.00;;;8.70;99.90;;;;;;5023997;28;20241;-79
2023/04/20 08:43:52;;;;;;;5.27;3.07;;;8.60;99.90;;;;;;5029403;28;20305;-81
2023/04/20 08:46:19;;;;;;;5.77;2.90;;;8.40;99.90;;;;;;5018889;28;20203;-81
2023/04/20 08:48:48;;;;;;;7.27;3.30;;;8.30;99.90;;;;;;5032130;28;20226;-80
2023/04/20 08:51:17;;;;;;;8.90;3.63;;;8.10;99.90;;;;;;5035671;28;20205;-80
2023/04/20 08:53:44;;;;;;;6.30;2.93;;;8.00;99.90;;;;;;5034865;28;20200;-84
2023/04/20 08:56:11;;;;;;;4.83;3.10;;;8.00;99.90;;;;;;5033224;28;20231;-79
2023/04/20 08:58:41;;;;;;;5.87;3.40;;;8.00;99.90;;;;;;5034957;28;20225;-81
2023/04/20 09:01:08;;;;;;;4.63;2.87;;;7.80;99.90;;;;;;5034695;28;20202;-82
2023/04/20 09:03:36;;;;;;;3.43;3.13;;;7.70;99.90;;;;;;5035221;28;20237;-82
2023/04/20 09:06:04;;;;;;;5.97;3.83;;;7.80;99.90;;;;;;5034268;28;20812;-84
2023/04/20 09:08:37;;;;;;;11.63;5.20;;;7.70;99.90;;;;;;5035931;28;20554;-85
2023/04/20 09:11:04;;;;;;;6.73;3.17;;;7.80;99.90;;;;;;5035253;28;20229;-83
2023/04/20 09:13:31;;;;;;;7.73;3.80;;;7.70;99.90;;;;;;5034308;28;20502;-84
2023/04/20 09:15:58;;;;;;;7.53;3.83;;;7.80;99.90;;;;;;5034059;28;20237;-85
2023/04/20 09:18:25;;;;;;;4.93;3.17;;;7.90;99.90;;;;;;5035466;28;20199;-82
2023/04/20 09:20:52;;;;;;;6.33;3.87;;;7.90;99.90;;;;;;5036417;28;20289;-86
2023/04/20 09:23:21;;;;;;;6.10;3.27;;;7.90;99.90;;;;;;5035547;28;20253;-79
2023/04/20 09:25:51;;;;;;;5.93;3.20;;;7.90;99.90;;;;;;5022471;28;20207;-85
2023/04/20 09:28:19;;;;;;;5.17;3.67;;;7.80;99.90;;;;;;5017135;28;20204;-82
2023/04/20 09:30:47;;;;;;;4.80;3.33;;;7.80;99.90;;;;;;5018196;28;20227;-86
2023/04/20 09:33:15;;;;;;;6.00;4.70;;;7.80;99.90;;;;;;5017490;28;20191;-84
2023/04/20 09:35:43;;;;;;;7.60;3.93;;;7.80;99.90;;;;;;5017600;28;20199;-83
2023/04/20 09:38:11;;;;;;;5.43;3.43;;;7.90;99.90;;;;;;5016286;28;20318;-81
2023/04/20 09:40:38;;;;;;;4.70;3.50;;;8.00;99.90;;;;;;5016105;28;20608;-84
2023/04/20 09:43:11;;;;;;;5.53;3.67;;;8.00;99.90;;;;;;5017061;28;20219;-80
2023/04/20 09:45:39;;;;;;;6.03;3.53;;;8.10;99.90;;;;;;5030746;28;20215;-82
2023/04/20 09:48:07;;;;;;;7.87;4.23;;;8.30;99.90;;;;;;5035826;28;20210;-82
2023/04/20 09:50:37;;;;;;;5.97;4.57;;;8.40;99.90;;;;;;5015908;28;20297;-82
2023/04/20 09:53:04;;;;;;;8.17;3.70;;;8.50;99.90;;;;;;5015957;28;20504;-84
2023/04/20 09:55:31;;;;;;;5.37;3.40;;;8.60;99.90;;;;;;5015451;28;20245;-82
2023/04/20 09:58:01;;;;;;;5.27;3.07;;;8.70;99.90;;;;;;5014855;28;20200;-83
2023/04/20 10:00:30;;;;;;;5.33;3.23;;;8.70;99.90;;;;;;5015582;28;20274;-81
2023/04/20 10:02:57;;;;;;;6.23;3.13;;;8.70;99.90;;;;;;5034996;28;20842;-81
2023/04/20 10:05:34;;;;;;;5.60;3.50;;;8.70;99.90;;;;;;5034460;28;20633;-80
2023/04/20 10:08:01;;;;;;;5.33;4.10;;;8.50;99.90;;;;;;5034750;28;20230;-82
2023/04/20 10:10:29;;;;;;;9.80;3.93;;;8.50;99.90;;;;;;5033360;28;20256;-82
2023/04/20 10:12:58;;;;;;;5.43;3.63;;;8.50;99.90;;;;;;5035436;28;20199;-81
2023/04/20 10:15:38;;;;;;;4.63;3.40;;;8.40;99.90;;;;;;5034659;28;20199;-82
2023/04/20 10:18:19;;;;;;;5.70;3.47;;;8.40;99.90;;;;;;5034054;28;20629;-80
2023/04/20 10:20:46;;;;;;;6.93;4.00;;;8.40;99.90;;;;;;5015824;28;20298;-79
2023/04/20 10:23:15;;;;;;;4.30;3.53;;;8.50;99.90;;;;;;5014553;28;20306;-82
2023/04/20 10:25:44;;;;;;;5.23;3.33;;;8.60;99.90;;;;;;5014092;28;20282;-80
2023/04/20 10:28:11;;;;;;;5.10;3.63;;;8.70;99.90;;;;;;5014733;28;20214;-81
2023/04/20 10:30:50;;;;;;;5.73;4.10;;;8.80;99.90;;;;;;5014483;28;20226;-80
2023/04/20 10:33:17;;;;;;;4.97;3.20;;;8.90;99.90;;;;;;5014222;28;20245;-80
2023/04/20 10:35:47;;;;;;;5.13;3.37;;;9.10;99.90;;;;;;5013971;28;20627;-82
2023/04/20 10:38:15;;;;;;;4.70;3.43;;;9.20;99.90;;;;;;5013383;28;20227;-80
2023/04/20 10:40:42;;;;;;;6.10;3.60;;;9.20;99.90;;;;;;5013921;28;20203;-85
2023/04/20 10:43:19;;;;;;;5.27;4.10;;;9.20;99.90;;;;;;5013897;28;20310;-80
2023/04/20 10:45:49;;;;;;;5.27;3.63;;;9.20;99.90;;;;;;5013902;28;20418;-81
2023/04/20 10:48:16;;;;;;;6.63;3.53;;;9.10;99.90;;;;;;5015332;28;20228;-80
2023/04/20 10:50:43;;;;;;;5.40;3.83;;;9.10;99.90;;;;;;5033491;28;20282;-83
2023/04/20 10:53:19;;;;;;;5.87;3.93;;;9.20;99.90;;;;;;5033201;28;20607;-81
2023/04/20 10:55:46;;;;;;;8.20;4.00;;;9.20;99.90;;;;;;5033356;28;20252;-81
2023/04/20 10:58:22;;;;;;;5.63;3.53;;;9.40;99.90;;;;;;5032100;28;20233;-80
2023/04/20 11:00:59;;;;;;;6.53;4.03;;;9.50;99.90;;;;;;5024745;28;20191;-81
2023/04/20 11:03:28;;;;;;;4.23;3.73;;;9.70;99.90;;;;;;5014038;28;20215;-84
2023/04/20 11:05:59;;;;;;;4.70;3.60;;;9.80;99.90;;;;;;5014813;28;20515;-83
2023/04/20 11:08:36;;;;;;;5.77;4.33;;;9.90;99.90;;;;;;5030958;28;20668;-81
2023/04/20 11:11:03;;;;;;;4.27;3.70;;;9.90;99.90;;;;;;5032972;28;20263;-80
2023/04/20 11:13:31;;;;;;;4.57;3.70;;;9.90;99.90;;;;;;5032170;28;20203;-82
2023/04/20 11:16:00;;;;;;;5.87;3.60;;;9.90;99.90;;;;;;5033232;28;20205;-82
2023/04/20 11:18:29;;;;;;;7.23;3.57;;;10.10;99.90;;;;;;5016976;28;20218;-79
2023/04/20 11:20:56;;;;;;;4.70;3.83;;;10.30;99.90;;;;;;5012999;28;20278;-80
2023/04/20 11:23:24;;;;;;;3.97;3.53;;;10.20;99.90;;;;;;5026863;28;20305;-79
2023/04/20 11:25:52;;;;;;;6.50;3.80;;;10.20;99.90;;;;;;5031243;28;20195;-80
2023/04/20 11:28:20;;;;;;;6.07;4.17;;;10.30;99.90;;;;;;5012449;28;20191;-80
2023/04/20 11:30:48;;;;;;;3.97;3.40;;;10.40;99.90;;;;;;5029736;28;20230;-82
2023/04/20 11:33:26;;;;;;;4.73;4.13;;;10.50;99.90;;;;;;5032536;28;20289;-79
2023/04/20 11:35:53;;;;;;;6.13;4.00;;;10.40;99.90;;;;;;5030633;28;20211;-80
2023/04/20 11:38:27;;;;;;;4.50;3.80;;;10.50;99.90;;;;;;5031823;28;20322;-80
2023/04/20 11:40:54;;;;;;;4.10;3.67;;;10.50;99.90;;;;;;5032259;28;20226;-81
2023/04/20 11:43:21;;;;;;;4.77;3.80;;;10.50;99.90;;;;;;5030487;28;20230;-82
2023/04/20 11:45:48;;;;;;;5.57;4.20;;;10.50;99.90;;;;;;5032844;28;20588;-82
2023/04/20 11:48:17;;;;;;;6.37;4.10;;;10.70;99.90;;;;;;5030740;28;20587;-79
2023/04/20 11:50:44;;;;;;;4.17;3.73;;;10.80;99.90;;;;;;5012302;28;20588;-83
2023/04/20 11:53:13;;;;;;;4.80;3.47;;;10.90;99.90;;;;;;5012832;28;20253;-80
2023/04/20 11:55:40;;;;;;;8.13;4.10;;;10.80;99.90;;;;;;5012437;28;20361;-80
2023/04/20 11:58:07;;;;;;;6.63;4.67;;;10.70;99.90;;;;;;5012956;28;20214;-83
2023/04/20 12:00:34;;;;;;;5.30;4.37;;;10.70;99.90;;;;;;5012880;28;20206;-81
2023/04/20 12:03:01;;;;;;;4.97;4.10;;;10.60;99.90;;;;;;5011851;28;20530;-80
2023/04/20 12:05:30;;;;;;;5.77;4.80;;;10.80;99.90;;;;;;5012964;28;20209;-80
2023/04/20 12:07:56;;;;;;;8.17;5.70;;;11.10;99.90;;;;;;5013038;28;20798;-81
2023/04/20 12:10:24;;;;;;;9.13;5.53;;;11.20;19.50;;;;;;5016742;28;20282;-81
2023/04/20 12:12:51;;;;;;;8.83;4.90;;;11.20;11.60;;;;;;5016961;28;21839;-80
2023/04/20 12:15:18;;;;;;;7.17;5.83;;;11.30;61.60;;;;;;5016605;28;20241;-80
2023/04/20 12:17:45;;;;;;;6.70;5.00;;;11.50;16.70;;;;;;5027077;28;20278;-81
2023/04/20 12:20:12;;;;;;;7.97;4.57;;;11.60;1.00;;;;;;5036744;28;20282;-80
2023/04/20 12:22:41;;;;;;;5.63;4.13;;;11.50;1.00;;;;;;5033613;28;20207;-84
2023/04/20 12:25:08;;;;;;;6.43;4.77;;;11.60;1.00;;;;;;5015747;28;20203;-82
2023/04/20 12:27:35;;;;;;;6.50;5.60;;;11.50;1.00;;;;;;5016302;28;20286;-82
2023/04/20 12:30:02;;;;;;;5.00;4.50;;;11.50;1.00;;;;;;5016691;28;20207;-83
2023/04/20 12:32:29;;;;;;;5.43;4.27;;;11.80;1.00;;;;;;5016029;28;20218;-82
2023/04/20 12:34:56;;;;;;;5.83;4.37;;;11.90;1.00;;;;;;5016386;28;20287;-82
2023/04/20 12:37:23;;;;;;;6.57;4.57;;;11.90;1.00;;;;;;5015803;28;20242;-81
2023/04/20 12:39:52;;;;;;;6.30;4.60;;;11.90;1.00;;;;;;5015477;28;20210;-83
2023/04/20 12:42:19;;;;;;;6.37;4.40;;;12.00;1.00;;;;;;5016107;28;20593;-81
2023/04/20 12:44:45;;;;;;;6.93;4.97;;;12.00;1.00;;;;;;5015577;28;20223;-81
2023/04/20 12:47:13;;;;;;;5.57;4.20;;;11.90;1.00;;;;;;5014851;28;20207;-83
2023/04/20 12:49:40;;;;;;;6.07;4.70;;;11.70;1.00;;;;;;5015514;28;20200;-83
2023/04/20 12:52:07;;;;;;;6.87;5.57;;;11.60;1.00;;;;;;5015817;28;20233;-85
2023/04/20 12:54:34;;;;;;;9.13;5.03;;;11.70;1.00;;;;;;5015888;28;20635;-81
2023/04/20 12:57:03;;;;;;;5.77;5.03;;;11.90;1.00;;;;;;5016195;28;20196;-83
2023/04/20 12:59:30;;;;;;;6.57;4.67;;;12.10;1.00;;;;;;5016021;28;20218;-81
2023/04/20 13:01:57;;;;;;;5.30;4.80;;;12.00;1.00;;;;;;5015540;28;20286;-83